Time;durP1;ratioP1;P1;durP2;ratioP2;P2;SDS_P1;SDS_P2;PMS_P1;PMS_P2;Temp;Humidity;BMP_temperature;BMP_pressure;BME280_temperature;BME280_humidity;BME280_pressure;Samples;Min_cycle;Max_cycle;Signal;HPM_P1;HPM_P2
2021/11/27 00:00:40;;;;;;;;;;;;;;;;;;2098729;28;1246;-90
2021/11/27 00:01:41;;;;;;;;;;;;;;;;;;2091102;28;1454;-91
2021/11/27 00:02:43;;;;;;;;;;;;;;;;;;2099151;28;1891;-91
2021/11/27 00:03:44;;;;;;;;;;;;;;;;;;2098765;28;1368;-92
2021/11/27 00:04:45;;;;;;;;;;;;;;;;;;2099410;28;927;-90
2021/11/27 00:05:47;;;;;;;;;;;;;;;;;;2099613;28;918;-94
2021/11/27 00:06:50;;;;;;;;;;;;;;;;;;2098706;28;1300;-94
2021/11/27 00:07:52;;;;;;;;;;;;;;;;;;2098931;28;1207;-94
2021/11/27 00:08:56;;;;;;;;;;;;;;;;;;2082715;28;1243;-94
2021/11/27 00:09:57;;;;;;;;;;;;;;;;;;2083402;28;1280;-93
2021/11/27 00:11:00;;;;;;;;;;;;;;;;;;2090140;28;1283;-94
2021/11/27 00:12:00;;;;;;;;;;;;;;;;;;2082756;28;1211;-95
2021/11/27 00:13:03;;;;;;;;;;;;;;;;;;2082707;28;1459;-94
2021/11/27 00:14:09;;;;;;;;;;;;;;;;;;2090923;28;1216;-94
2021/11/27 00:15:10;;;;;;;;;;;;;;;;;;2082551;28;1392;-95
2021/11/27 00:16:13;;;;;;;;;;;;;;;;;;2082260;28;1292;-94
2021/11/27 00:17:14;;;;;;;;;;;;;;;;;;2083014;28;1015;-95
2021/11/27 00:18:17;;;;;;;;;;;;;;;;;;2082365;28;1327;-94
2021/11/27 00:19:20;;;;;;;;;;;;;;;;;;2086671;28;2126;-95
2021/11/27 00:20:23;;;;;;;;;;;;;;;;;;2098684;28;1455;-94
2021/11/27 00:21:27;;;;;;;;;;;;;;;;;;2098570;28;839;-95
2021/11/27 00:22:27;;;;;;;;;;;;;;;;;;2091364;28;1268;-91
2021/11/27 00:23:30;;;;;;;;;;;;;;;;;;2090566;28;1918;-93
2021/11/27 00:24:33;;;;;;;;;;;;;;;;;;2090875;28;1175;-93
2021/11/27 00:25:34;;;;;;;;;;;;;;;;;;2082483;28;1332;-88
2021/11/27 00:26:36;;;;;;;;;;;;;;;;;;2082400;28;1414;-89
2021/11/27 00:27:37;;;;;;;;;;;;;;;;;;2090412;28;1149;-89
2021/11/27 00:28:39;;;;;;;;;;;;;;;;;;2090904;28;1218;-89
2021/11/27 00:29:40;;;;;;;;;;;;;;;;;;2090811;28;1158;-89
2021/11/27 00:30:41;;;;;;;;;;;;;;;;;;2090209;28;1881;-89
2021/11/27 00:31:43;;;;;;;;;;;;;;;;;;2074534;28;1196;-89
2021/11/27 00:32:44;;;;;;;;;;;;;;;;;;2074415;28;1363;-90
2021/11/27 00:33:46;;;;;;;;;;;;;;;;;;2082492;28;864;-89
2021/11/27 00:34:47;;;;;;;;;;;;;;;;;;2098847;28;1288;-89
2021/11/27 00:35:48;;;;;;;;;;;;;;;;;;2090504;28;1302;-88
2021/11/27 00:36:51;;;;;;;;;;;;;;;;;;2082605;28;1442;-89
2021/11/27 00:37:55;;;;;;;;;;;;;;;;;;2074244;28;1171;-89
2021/11/27 00:38:57;;;;;;;;;;;;;;;;;;2082964;28;787;-89
2021/11/27 00:39:59;;;;;;;;;;;;;;;;;;2090740;28;1282;-88
2021/11/27 00:41:01;;;;;;;;;;;;;;;;;;2085214;28;1159;-88
2021/11/27 00:42:03;;;;;;;;;;;;;;;;;;2082486;28;1376;-88
2021/11/27 00:43:04;;;;;;;;;;;;;;;;;;2074220;28;1989;-88
2021/11/27 00:44:06;;;;;;;;;;;;;;;;;;2093399;28;1326;-88
2021/11/27 00:45:11;;;;;;;;;;;;;;;;;;2098838;28;1384;-89
2021/11/27 00:46:13;;;;;;;;;;;;;;;;;;2083916;28;2226;-88
2021/11/27 00:47:13;;;;;;;;;;;;;;;;;;2084338;28;1199;-88
2021/11/27 00:48:16;;;;;;;;;;;;;;;;;;2092023;28;1370;-89
2021/11/27 00:49:16;;;;;;;;;;;;;;;;;;2083881;28;1429;-89
2021/11/27 00:50:20;;;;;;;;;;;;;;;;;;2084034;28;1328;-90
2021/11/27 00:51:23;;;;;;;;;;;;;;;;;;2106034;28;2112;-89
2021/11/27 00:52:24;;;;;;;;;;;;;;;;;;2100486;28;1257;-89
2021/11/27 00:53:26;;;;;;;;;;;;;;;;;;2100636;28;1286;-90
2021/11/27 00:54:27;;;;;;;;;;;;;;;;;;2094729;28;1234;-89
2021/11/27 00:55:31;;;;;;;;;;;;;;;;;;2092033;28;1416;-89
2021/11/27 00:56:33;;;;;;;;;;;;;;;;;;2100339;28;828;-90
2021/11/27 00:57:34;;;;;;;;;;;;;;;;;;2100407;28;1161;-89
2021/11/27 00:58:36;;;;;;;;;;;;;;;;;;2092181;28;1331;-89
2021/11/27 00:59:36;;;;;;;;;;;;;;;;;;2083897;28;1326;-89
2021/11/27 01:00:40;;;;;;;;;;;;;;;;;;2091862;28;1344;-90
2021/11/27 01:01:42;;;;;;;;;;;;;;;;;;2092221;28;1248;-90
2021/11/27 01:02:43;;;;;;;;;;;;;;;;;;2092469;28;1433;-90
2021/11/27 01:03:53;;;;;;;;;;;;;;;;;;2091933;28;1252;-89
2021/11/27 01:04:53;;;;;;;;;;;;;;;;;;2083970;28;1256;-89
2021/11/27 01:05:57;;;;;;;;;;;;;;;;;;2085572;28;2052;-90
2021/11/27 01:06:58;;;;;;;;;;;;;;;;;;2083729;28;1211;-88
2021/11/27 01:08:00;;;;;;;;;;;;;;;;;;2075412;28;1310;-89
2021/11/27 01:09:05;;;;;;;;;;;;;;;;;;2089968;28;1319;-90
2021/11/27 01:10:09;;;;;;;;;;;;;;;;;;2084656;28;1204;-89
2021/11/27 01:11:15;;;;;;;;;;;;;;;;;;2083881;28;1282;-89
2021/11/27 01:12:15;;;;;;;;;;;;;;;;;;2084567;28;1413;-90
2021/11/27 01:13:18;;;;;;;;;;;;;;;;;;2083138;28;1326;-89
2021/11/27 01:14:19;;;;;;;;;;;;;;;;;;2083696;28;1331;-89
2021/11/27 01:15:23;;;;;;;;;;;;;;;;;;2091524;28;1244;-90
2021/11/27 01:16:27;;;;;;;;;;;;;;;;;;2091660;28;1418;-89
2021/11/27 01:17:27;;;;;;;;;;;;;;;;;;2092130;28;1417;-89
2021/11/27 01:18:30;;;;;;;;;;;;;;;;;;2083653;28;1287;-89
2021/11/27 01:19:30;;;;;;;;;;;;;;;;;;2083419;28;1292;-88
2021/11/27 01:20:35;;;;;;;;;;;;;;;;;;2092060;28;1301;-89
2021/11/27 01:21:37;;;;;;;;;;;;;;;;;;2091958;28;1192;-90
2021/11/27 01:22:39;;;;;;;;;;;;;;;;;;2092032;28;1213;-88
2021/11/27 01:23:41;;;;;;;;;;;;;;;;;;2100000;28;2000;-89
2021/11/27 01:24:43;;;;;;;;;;;;;;;;;;2084196;28;1215;-88
2021/11/27 01:25:44;;;;;;;;;;;;;;;;;;2092109;28;1254;-89
2021/11/27 01:26:49;;;;;;;;;;;;;;;;;;2100019;28;1110;-89
2021/11/27 01:27:51;;;;;;;;;;;;;;;;;;2099573;28;1404;-89
2021/11/27 01:28:51;;;;;;;;;;;;;;;;;;2091599;28;1415;-89
2021/11/27 01:29:53;;;;;;;;;;;;;;;;;;2100076;28;1251;-89
2021/11/27 01:30:55;;;;;;;;;;;;;;;;;;2092072;28;1381;-89
2021/11/27 01:31:58;;;;;;;;;;;;;;;;;;2083241;28;1287;-89
2021/11/27 01:33:00;;;;;;;;;;;;;;;;;;2084014;28;894;-89
2021/11/27 01:34:02;;;;;;;;;;;;;;;;;;2083681;28;1378;-90
2021/11/27 01:35:05;;;;;;;;;;;;;;;;;;2092177;28;1542;-90
2021/11/27 01:36:06;;;;;;;;;;;;;;;;;;2092058;28;1179;-90
2021/11/27 01:37:09;;;;;;;;;;;;;;;;;;2091882;28;1209;-90
2021/11/27 01:38:09;;;;;;;;;;;;;;;;;;2099978;28;1421;-90
2021/11/27 01:39:11;;;;;;;;;;;;;;;;;;2091669;28;1230;-91
2021/11/27 01:40:14;;;;;;;;;;;;;;;;;;2075464;28;1407;-90
2021/11/27 01:41:15;;;;;;;;;;;;;;;;;;2083827;28;1326;-91
2021/11/27 01:42:17;;;;;;;;;;;;;;;;;;2083279;28;1449;-91
2021/11/27 01:43:22;;;;;;;;;;;;;;;;;;2076140;28;1965;-90
2021/11/27 01:44:23;;;;;;;;;;;;;;;;;;2083846;28;1362;-90
2021/11/27 01:45:26;;;;;;;;;;;;;;;;;;2083038;28;1247;-90
2021/11/27 01:46:26;;;;;;;;;;;;;;;;;;2096651;28;2122;-90
2021/11/27 01:47:28;;;;;;;;;;;;;;;;;;2099997;28;1213;-91
2021/11/27 01:48:30;;;;;;;;;;;;;;;;;;2091796;28;1446;-90
2021/11/27 01:49:32;;;;;;;;;;;;;;;;;;2085180;28;1195;-91
2021/11/27 01:50:34;;;;;;;;;;;;;;;;;;2091910;28;1410;-90
2021/11/27 01:51:36;;;;;;;;;;;;;;;;;;2091750;28;1440;-90
2021/11/27 01:52:37;;;;;;;;;;;;;;;;;;2099937;28;1431;-90
2021/11/27 01:53:40;;;;;;;;;;;;;;;;;;2083358;28;1246;-91
2021/11/27 01:54:41;;;;;;;;;;;;;;;;;;2083619;28;1289;-90
2021/11/27 01:55:43;;;;;;;;;;;;;;;;;;2091776;28;1314;-90
2021/11/27 01:56:45;;;;;;;;;;;;;;;;;;2091872;28;1358;-89
2021/11/27 01:57:53;;;;;;;;;;;;;;;;;;2084874;28;1585;-89
2021/11/27 01:58:54;;;;;;;;;;;;;;;;;;2083600;28;1252;-89
2021/11/27 01:59:58;;;;;;;;;;;;;;;;;;2083205;28;1368;-89
2021/11/27 02:01:00;;;;;;;;;;;;;;;;;;2083497;28;1167;-89
2021/11/27 02:02:02;;;;;;;;;;;;;;;;;;2083909;28;1216;-89
2021/11/27 02:03:04;;;;;;;;;;;;;;;;;;2091507;28;1195;-90
2021/11/27 02:04:34;;;;;;;;;;;;;;;;;;2089162;28;1176;-90
2021/11/27 02:05:35;;;;;;;;;;;;;;;;;;2083289;28;1251;-88
2021/11/27 02:06:38;;;;;;;;;;;;;;;;;;2083555;28;1270;-89
2021/11/27 02:07:40;;;;;;;;;;;;;;;;;;2091904;28;1208;-88
2021/11/27 02:08:44;;;;;;;;;;;;;;;;;;2091703;28;1424;-89
2021/11/27 02:09:46;;;;;;;;;;;;;;;;;;2098971;28;1232;-89
2021/11/27 02:10:48;;;;;;;;;;;;;;;;;;2099776;28;1246;-88
2021/11/27 02:11:50;;;;;;;;;;;;;;;;;;2091376;28;1385;-90
2021/11/27 02:12:54;;;;;;;;;;;;;;;;;;2083792;28;1216;-90
2021/11/27 02:13:56;;;;;;;;;;;;;;;;;;2075211;28;1220;-90
2021/11/27 02:14:58;;;;;;;;;;;;;;;;;;2083493;28;1292;-89
2021/11/27 02:15:58;;;;;;;;;;;;;;;;;;2091185;28;1318;-91
2021/11/27 02:17:00;;;;;;;;;;;;;;;;;;2091328;28;1243;-90
2021/11/27 02:18:03;;;;;;;;;;;;;;;;;;2083419;28;1268;-89
2021/11/27 02:19:06;;;;;;;;;;;;;;;;;;2074860;28;1466;-90
2021/11/27 02:20:08;;;;;;;;;;;;;;;;;;2091234;28;1361;-89
2021/11/27 02:21:12;;;;;;;;;;;;;;;;;;2091094;28;1294;-90
2021/11/27 02:22:15;;;;;;;;;;;;;;;;;;2075349;28;1245;-90
2021/11/27 02:23:21;;;;;;;;;;;;;;;;;;2076833;28;1909;-89
2021/11/27 02:24:23;;;;;;;;;;;;;;;;;;2088341;28;1231;-90
2021/11/27 02:25:24;;;;;;;;;;;;;;;;;;2083238;28;1307;-90
2021/11/27 02:26:27;;;;;;;;;;;;;;;;;;2083294;28;1386;-90
2021/11/27 02:27:32;;;;;;;;;;;;;;;;;;2091994;28;1227;-90
2021/11/27 02:28:38;;;;;;;;;;;;;;;;;;2091134;28;1440;-90
2021/11/27 02:29:40;;;;;;;;;;;;;;;;;;2099075;28;1955;-90
2021/11/27 02:30:41;;;;;;;;;;;;;;;;;;2099442;28;1262;-90
2021/11/27 02:31:45;;;;;;;;;;;;;;;;;;2075348;28;1559;-88
2021/11/27 02:32:46;;;;;;;;;;;;;;;;;;2083260;28;1207;-88
2021/11/27 02:33:49;;;;;;;;;;;;;;;;;;2083638;28;1168;-88
2021/11/27 02:34:50;;;;;;;;;;;;;;;;;;2099635;28;1385;-88
2021/11/27 02:35:51;;;;;;;;;;;;;;;;;;2100787;28;1215;-88
2021/11/27 02:36:55;;;;;;;;;;;;;;;;;;2108154;28;782;-88
2021/11/27 02:37:58;;;;;;;;;;;;;;;;;;2091193;28;1157;-91
2021/11/27 02:38:59;;;;;;;;;;;;;;;;;;2082867;28;2136;-90
2021/11/27 02:40:01;;;;;;;;;;;;;;;;;;2099669;28;1339;-91
2021/11/27 02:41:02;;;;;;;;;;;;;;;;;;2099168;28;1205;-90
2021/11/27 02:42:05;;;;;;;;;;;;;;;;;;2099380;28;1251;-91
2021/11/27 02:43:05;;;;;;;;;;;;;;;;;;2091495;28;1271;-91
2021/11/27 02:44:08;;;;;;;;;;;;;;;;;;2091453;28;1978;-91
2021/11/27 02:45:10;;;;;;;;;;;;;;;;;;2091684;28;1530;-91
2021/11/27 02:46:14;;;;;;;;;;;;;;;;;;2087623;28;1207;-89
2021/11/27 02:47:14;;;;;;;;;;;;;;;;;;2083220;28;1413;-88
2021/11/27 02:48:16;;;;;;;;;;;;;;;;;;2083347;28;1407;-89
2021/11/27 02:49:17;;;;;;;;;;;;;;;;;;2086640;28;2067;-89
2021/11/27 02:50:20;;;;;;;;;;;;;;;;;;2091541;28;1249;-88
2021/11/27 02:51:21;;;;;;;;;;;;;;;;;;2090871;28;1114;-87
2021/11/27 02:52:26;;;;;;;;;;;;;;;;;;2083283;28;1247;-89
2021/11/27 02:53:27;;;;;;;;;;;;;;;;;;2091393;28;1226;-88
2021/11/27 02:54:29;;;;;;;;;;;;;;;;;;2099098;28;1461;-89
2021/11/27 02:55:29;;;;;;;;;;;;;;;;;;2098977;28;1470;-88
2021/11/27 02:56:31;;;;;;;;;;;;;;;;;;2090727;28;1220;-88
2021/11/27 02:57:32;;;;;;;;;;;;;;;;;;2090748;28;1350;-88
2021/11/27 02:58:34;;;;;;;;;;;;;;;;;;2091227;28;1267;-88
2021/11/27 02:59:35;;;;;;;;;;;;;;;;;;2090950;28;1349;-88
2021/11/27 03:00:37;;;;;;;;;;;;;;;;;;2099290;28;1228;-88
2021/11/27 03:01:38;;;;;;;;;;;;;;;;;;2099189;28;1332;-88
2021/11/27 03:02:40;;;;;;;;;;;;;;;;;;2099585;28;1427;-88
2021/11/27 03:03:41;;;;;;;;;;;;;;;;;;2099001;28;1922;-88
2021/11/27 03:04:43;;;;;;;;;;;;;;;;;;2090875;28;1869;-88
2021/11/27 03:05:44;;;;;;;;;;;;;;;;;;2090197;28;1533;-88
2021/11/27 03:06:46;;;;;;;;;;;;;;;;;;2082816;28;1285;-88
2021/11/27 03:07:49;;;;;;;;;;;;;;;;;;2082706;28;1349;-88
2021/11/27 03:08:51;;;;;;;;;;;;;;;;;;2082694;28;2159;-88
2021/11/27 03:09:51;;;;;;;;;;;;;;;;;;2091105;28;804;-88
2021/11/27 03:10:53;;;;;;;;;;;;;;;;;;2100335;28;1347;-88
2021/11/27 03:11:55;;;;;;;;;;;;;;;;;;2091089;28;1279;-88
2021/11/27 03:12:57;;;;;;;;;;;;;;;;;;2091599;28;1508;-88
2021/11/27 03:13:58;;;;;;;;;;;;;;;;;;2097925;28;1211;-88
2021/11/27 03:15:00;;;;;;;;;;;;;;;;;;2082805;28;1211;-88
2021/11/27 03:16:01;;;;;;;;;;;;;;;;;;2086197;28;1042;-88
2021/11/27 03:17:03;;;;;;;;;;;;;;;;;;2091076;28;1174;-88
2021/11/27 03:18:04;;;;;;;;;;;;;;;;;;2082891;28;1195;-88
2021/11/27 03:19:07;;;;;;;;;;;;;;;;;;2091049;28;2023;-88
2021/11/27 03:20:08;;;;;;;;;;;;;;;;;;2091215;28;1333;-88
2021/11/27 03:21:10;;;;;;;;;;;;;;;;;;2090625;28;1275;-88
2021/11/27 03:22:11;;;;;;;;;;;;;;;;;;2082819;28;1211;-87
2021/11/27 03:23:14;;;;;;;;;;;;;;;;;;2082905;28;1330;-89
2021/11/27 03:24:16;;;;;;;;;;;;;;;;;;2090948;28;1973;-89
2021/11/27 03:25:17;;;;;;;;;;;;;;;;;;2091260;28;969;-89
2021/11/27 03:26:20;;;;;;;;;;;;;;;;;;2096543;28;1951;-91
2021/11/27 03:27:23;;;;;;;;;;;;;;;;;;2090938;28;1347;-91
2021/11/27 03:28:25;;;;;;;;;;;;;;;;;;2090835;28;1602;-91
2021/11/27 03:29:26;;;;;;;;;;;;;;;;;;2090947;28;1644;-90
2021/11/27 03:30:29;;;;;;;;;;;;;;;;;;2099317;28;1314;-90
2021/11/27 03:31:33;;;;;;;;;;;;;;;;;;2091412;28;1368;-91
2021/11/27 03:32:37;;;;;;;;;;;;;;;;;;2091592;28;1289;-90
2021/11/27 03:33:44;;;;;;;;;;;;;;;;;;2083593;28;1238;-90
2021/11/27 03:34:46;;;;;;;;;;;;;;;;;;2083141;28;1214;-91
2021/11/27 03:35:47;;;;;;;;;;;;;;;;;;2090941;28;1319;-91
2021/11/27 03:36:49;;;;;;;;;;;;;;;;;;2082462;28;1212;-90
2021/11/27 03:37:51;;;;;;;;;;;;;;;;;;2074687;28;1264;-90
2021/11/27 03:38:59;;;;;;;;;;;;;;;;;;2083649;28;1176;-90
2021/11/27 03:40:00;;;;;;;;;;;;;;;;;;2083654;28;1234;-89
2021/11/27 03:41:02;;;;;;;;;;;;;;;;;;2098750;28;1236;-89
2021/11/27 03:42:04;;;;;;;;;;;;;;;;;;2091385;28;1179;-91
2021/11/27 03:43:06;;;;;;;;;;;;;;;;;;2090914;28;1210;-88
2021/11/27 03:44:08;;;;;;;;;;;;;;;;;;2094304;28;2200;-88
2021/11/27 03:45:11;;;;;;;;;;;;;;;;;;2107335;28;1063;-88
2021/11/27 03:46:13;;;;;;;;;;;;;;;;;;2107526;28;1686;-88
2021/11/27 03:47:15;;;;;;;;;;;;;;;;;;2098944;28;1370;-88
2021/11/27 03:48:16;;;;;;;;;;;;;;;;;;2099341;28;1265;-88
2021/11/27 03:49:37;;;;;;;;;;;;;;;;;;2094704;28;2038;-88
2021/11/27 03:50:40;;;;;;;;;;;;;;;;;;2091113;28;1325;-88
2021/11/27 03:51:41;;;;;;;;;;;;;;;;;;2082927;28;1386;-89
2021/11/27 03:52:42;;;;;;;;;;;;;;;;;;2090819;28;967;-89
2021/11/27 03:53:45;;;;;;;;;;;;;;;;;;2082639;28;1192;-90
2021/11/27 03:54:50;;;;;;;;;;;;;;;;;;2083149;28;1239;-89
2021/11/27 03:55:53;;;;;;;;;;;;;;;;;;2084088;28;1208;-90
2021/11/27 03:56:53;;;;;;;;;;;;;;;;;;2082815;28;1379;-90
2021/11/27 03:57:55;;;;;;;;;;;;;;;;;;2090666;28;1153;-90
2021/11/27 03:58:59;;;;;;;;;;;;;;;;;;2099231;28;1597;-90
2021/11/27 04:00:00;;;;;;;;;;;;;;;;;;2090927;28;1412;-90
2021/11/27 04:01:02;;;;;;;;;;;;;;;;;;2090548;28;2066;-89
2021/11/27 04:02:03;;;;;;;;;;;;;;;;;;2082798;28;1454;-89
2021/11/27 04:03:06;;;;;;;;;;;;;;;;;;2082682;28;1325;-89
2021/11/27 04:04:09;;;;;;;;;;;;;;;;;;2085230;28;1973;-89
2021/11/27 04:05:09;;;;;;;;;;;;;;;;;;2082972;28;1522;-89
2021/11/27 04:06:12;;;;;;;;;;;;;;;;;;2082890;28;1449;-89
2021/11/27 04:07:14;;;;;;;;;;;;;;;;;;2082536;28;1316;-89
2021/11/27 04:08:17;;;;;;;;;;;;;;;;;;2099544;28;1514;-89
2021/11/27 04:09:18;;;;;;;;;;;;;;;;;;2099224;28;1243;-89
2021/11/27 04:10:21;;;;;;;;;;;;;;;;;;2099204;28;1383;-89
2021/11/27 04:11:24;;;;;;;;;;;;;;;;;;2090660;28;1219;-89
2021/11/27 04:12:24;;;;;;;;;;;;;;;;;;2091040;28;1274;-89
2021/11/27 04:13:26;;;;;;;;;;;;;;;;;;2098742;28;1444;-89
2021/11/27 04:14:27;;;;;;;;;;;;;;;;;;2090686;28;1247;-89
2021/11/27 04:15:35;;;;;;;;;;;;;;;;;;2091820;28;1202;-89
2021/11/27 04:16:36;;;;;;;;;;;;;;;;;;2090935;28;2070;-89
2021/11/27 04:17:38;;;;;;;;;;;;;;;;;;2090471;28;1230;-89
2021/11/27 04:18:39;;;;;;;;;;;;;;;;;;2066540;28;1325;-89
2021/11/27 04:19:40;;;;;;;;;;;;;;;;;;2074268;28;1205;-89
2021/11/27 04:20:41;;;;;;;;;;;;;;;;;;2099510;28;1331;-89
2021/11/27 04:21:43;;;;;;;;;;;;;;;;;;2092330;28;1314;-89
2021/11/27 04:22:44;;;;;;;;;;;;;;;;;;2084045;28;1597;-89
2021/11/27 04:23:46;;;;;;;;;;;;;;;;;;2091802;28;1325;-89
2021/11/27 04:24:50;;;;;;;;;;;;;;;;;;2100407;28;1976;-89
2021/11/27 04:25:53;;;;;;;;;;;;;;;;;;2100501;28;1880;-88
2021/11/27 04:26:54;;;;;;;;;;;;;;;;;;2100818;28;1430;-89
2021/11/27 04:27:59;;;;;;;;;;;;;;;;;;2101113;28;1346;-89
2021/11/27 04:29:01;;;;;;;;;;;;;;;;;;2099658;28;2042;-89
2021/11/27 04:30:04;;;;;;;;;;;;;;;;;;2092469;28;1188;-89
2021/11/27 04:31:05;;;;;;;;;;;;;;;;;;2084136;28;1890;-89
2021/11/27 04:32:06;;;;;;;;;;;;;;;;;;2092286;28;1373;-90
2021/11/27 04:33:09;;;;;;;;;;;;;;;;;;2083958;28;1078;-90
2021/11/27 04:34:20;;;;;;;;;;;;;;;;;;2100695;28;1367;-90
2021/11/27 04:35:21;;;;;;;;;;;;;;;;;;2091784;28;1245;-90
2021/11/27 04:36:23;;;;;;;;;;;;;;;;;;2092316;28;1445;-89
2021/11/27 04:37:25;;;;;;;;;;;;;;;;;;2092320;28;1401;-90
2021/11/27 04:38:27;;;;;;;;;;;;;;;;;;2076466;28;1433;-90
2021/11/27 04:39:30;;;;;;;;;;;;;;;;;;2078306;28;1211;-90
2021/11/27 04:40:34;;;;;;;;;;;;;;;;;;2092384;28;1287;-88
2021/11/27 04:41:36;;;;;;;;;;;;;;;;;;2099934;28;1394;-89
2021/11/27 04:42:38;;;;;;;;;;;;;;;;;;2092466;28;1414;-89
2021/11/27 04:43:40;;;;;;;;;;;;;;;;;;2092344;28;1287;-89
2021/11/27 04:44:40;;;;;;;;;;;;;;;;;;2091751;28;1914;-88
2021/11/27 04:45:43;;;;;;;;;;;;;;;;;;2091989;28;2119;-89
2021/11/27 04:46:44;;;;;;;;;;;;;;;;;;2084238;28;1325;-89
2021/11/27 04:47:45;;;;;;;;;;;;;;;;;;2084000;28;1225;-89
2021/11/27 04:48:49;;;;;;;;;;;;;;;;;;2084233;28;1346;-89
2021/11/27 04:49:49;;;;;;;;;;;;;;;;;;2083719;28;1280;-89
2021/11/27 04:50:52;;;;;;;;;;;;;;;;;;2084255;28;910;-89
2021/11/27 04:51:53;;;;;;;;;;;;;;;;;;2084000;28;1406;-89
2021/11/27 04:52:56;;;;;;;;;;;;;;;;;;2075780;28;1280;-90
2021/11/27 04:53:58;;;;;;;;;;;;;;;;;;2084540;28;1393;-90
2021/11/27 04:55:00;;;;;;;;;;;;;;;;;;2092155;28;1617;-89
2021/11/27 04:56:02;;;;;;;;;;;;;;;;;;2092427;28;1565;-90
2021/11/27 04:57:06;;;;;;;;;;;;;;;;;;2092272;28;1327;-88
2021/11/27 04:58:07;;;;;;;;;;;;;;;;;;2092084;28;1127;-89
2021/11/27 04:59:09;;;;;;;;;;;;;;;;;;2091962;28;1318;-89
2021/11/27 05:00:13;;;;;;;;;;;;;;;;;;2083851;28;1209;-89
2021/11/27 05:01:15;;;;;;;;;;;;;;;;;;2092325;28;2059;-87
2021/11/27 05:02:31;;;;;;;;;;;;;;;;;;2092326;28;1371;-89
2021/11/27 05:03:33;;;;;;;;;;;;;;;;;;2091916;28;1510;-88
2021/11/27 05:04:33;;;;;;;;;;;;;;;;;;2091686;28;1909;-88
2021/11/27 05:05:37;;;;;;;;;;;;;;;;;;2084086;28;1380;-88
2021/11/27 05:06:38;;;;;;;;;;;;;;;;;;2091730;28;1295;-88
2021/11/27 05:07:40;;;;;;;;;;;;;;;;;;2091928;28;1291;-88
2021/11/27 05:08:40;;;;;;;;;;;;;;;;;;2095858;28;1354;-88
2021/11/27 05:09:42;;;;;;;;;;;;;;;;;;2107220;28;2023;-88
2021/11/27 05:10:43;;;;;;;;;;;;;;;;;;2100462;28;1151;-86
2021/11/27 05:11:45;;;;;;;;;;;;;;;;;;2091887;28;1298;-86
2021/11/27 05:12:49;;;;;;;;;;;;;;;;;;2092870;28;1352;-85
2021/11/27 05:13:51;;;;;;;;;;;;;;;;;;2083397;28;1279;-86
2021/11/27 05:14:53;;;;;;;;;;;;;;;;;;2089976;28;1295;-87
2021/11/27 05:15:54;;;;;;;;;;;;;;;;;;2099816;28;1123;-86
2021/11/27 05:16:55;;;;;;;;;;;;;;;;;;2100354;28;1566;-86
2021/11/27 05:17:57;;;;;;;;;;;;;;;;;;2091962;28;1242;-87
2021/11/27 05:19:27;;;;;;;;;;;;;;;;;;2085452;28;1233;-86
2021/11/27 05:20:40;;;;;;;;;;;;;;;;;;2099991;28;1291;-86
2021/11/27 05:21:42;;;;;;;;;;;;;;;;;;2091549;28;1315;-86
2021/11/27 05:22:44;;;;;;;;;;;;;;;;;;2091547;28;1413;-86
2021/11/27 05:23:45;;;;;;;;;;;;;;;;;;2091367;28;1103;-86
2021/11/27 05:25:09;;;;;;;;;;;;;;;;;;2091496;28;1918;-86
2021/11/27 05:26:30;;;;;;;;;;;;;;;;;;2099806;28;1887;-86
2021/11/27 05:27:52;;;;;;;;;;;;;;;;;;2100599;28;1277;-85
2021/11/27 05:29:26;;;;;;;;;;;;;;;;;;2090360;28;1425;-85
2021/11/27 05:30:54;;;;;;;;;;;;;;;;;;2087558;28;1357;-85
2021/11/27 05:32:03;;;;;;;;;;;;;;;;;;2094731;28;1227;-85
2021/11/27 05:33:10;;;;;;;;;;;;;;;;;;2091831;28;1301;-85
2021/11/27 05:34:34;;;;;;;;;;;;;;;;;;2078055;28;1279;-85
2021/11/27 05:35:36;;;;;;;;;;;;;;;;;;2087753;28;836;-86
2021/11/27 05:36:39;;;;;;;;;;;;;;;;;;2099488;28;1408;-86
2021/11/27 05:37:41;;;;;;;;;;;;;;;;;;2091891;28;1403;-86
2021/11/27 05:38:42;;;;;;;;;;;;;;;;;;2091545;28;1269;-86
2021/11/27 05:39:44;;;;;;;;;;;;;;;;;;2091371;28;1448;-86
2021/11/27 05:40:45;;;;;;;;;;;;;;;;;;2091545;28;1265;-87
2021/11/27 05:41:47;;;;;;;;;;;;;;;;;;2091417;28;1381;-87
2021/11/27 05:42:49;;;;;;;;;;;;;;;;;;2083785;28;1501;-87
2021/11/27 05:43:51;;;;;;;;;;;;;;;;;;2083103;28;1267;-87
2021/11/27 05:44:54;;;;;;;;;;;;;;;;;;2091681;28;1918;-87
2021/11/27 05:45:57;;;;;;;;;;;;;;;;;;2097831;28;1373;-87
2021/11/27 05:47:02;;;;;;;;;;;;;;;;;;2083999;28;1216;-86
2021/11/27 05:48:04;;;;;;;;;;;;;;;;;;2083748;28;1371;-87
2021/11/27 05:49:23;;;;;;;;;;;;;;;;;;2096517;28;1260;-86
2021/11/27 05:50:42;;;;;;;;;;;;;;;;;;2091976;28;1427;-87
2021/11/27 05:51:42;;;;;;;;;;;;;;;;;;2082427;28;1315;-87
2021/11/27 05:52:44;;;;;;;;;;;;;;;;;;2083699;28;1357;-87
2021/11/27 05:53:45;;;;;;;;;;;;;;;;;;2083467;28;1300;-87
2021/11/27 05:54:47;;;;;;;;;;;;;;;;;;2099747;28;1089;-87
2021/11/27 05:55:49;;;;;;;;;;;;;;;;;;2084641;28;1868;-87
2021/11/27 05:56:51;;;;;;;;;;;;;;;;;;2083758;28;1326;-88
2021/11/27 05:57:51;;;;;;;;;;;;;;;;;;2097033;28;1406;-87
2021/11/27 05:58:56;;;;;;;;;;;;;;;;;;2096545;28;1717;-88
2021/11/27 05:59:58;;;;;;;;;;;;;;;;;;2091645;28;981;-87
2021/11/27 06:01:04;;;;;;;;;;;;;;;;;;2106300;28;1830;-88
2021/11/27 06:02:05;;;;;;;;;;;;;;;;;;2099560;28;1259;-87
2021/11/27 06:03:07;;;;;;;;;;;;;;;;;;2091417;28;1326;-89
2021/11/27 06:04:08;;;;;;;;;;;;;;;;;;2099973;28;1454;-87
2021/11/27 06:05:10;;;;;;;;;;;;;;;;;;2099680;28;1918;-85
2021/11/27 06:06:11;;;;;;;;;;;;;;;;;;2099584;28;1856;-86
2021/11/27 06:07:13;;;;;;;;;;;;;;;;;;2091344;28;1278;-87
2021/11/27 06:08:14;;;;;;;;;;;;;;;;;;2091614;28;1334;-88
2021/11/27 06:09:16;;;;;;;;;;;;;;;;;;2084744;28;1709;-87
2021/11/27 06:10:17;;;;;;;;;;;;;;;;;;2091661;28;1304;-89
2021/11/27 06:11:18;;;;;;;;;;;;;;;;;;2091095;28;1305;-87
2021/11/27 06:12:20;;;;;;;;;;;;;;;;;;2083324;28;1230;-88
2021/11/27 06:13:20;;;;;;;;;;;;;;;;;;2091639;28;949;-87
2021/11/27 06:14:24;;;;;;;;;;;;;;;;;;2099655;28;1281;-88
2021/11/27 06:15:25;;;;;;;;;;;;;;;;;;2099564;28;1354;-88
2021/11/27 06:16:27;;;;;;;;;;;;;;;;;;2099562;28;1306;-88
2021/11/27 06:17:28;;;;;;;;;;;;;;;;;;2099558;28;1295;-88
2021/11/27 06:18:29;;;;;;;;;;;;;;;;;;2091405;28;1203;-88
2021/11/27 06:19:31;;;;;;;;;;;;;;;;;;2091143;28;1356;-87
2021/11/27 06:20:32;;;;;;;;;;;;;;;;;;2099913;28;776;-88
2021/11/27 06:21:34;;;;;;;;;;;;;;;;;;2098185;28;2035;-88
2021/11/27 06:22:34;;;;;;;;;;;;;;;;;;2083202;28;1335;-87
2021/11/27 06:23:36;;;;;;;;;;;;;;;;;;2091133;28;1523;-86
2021/11/27 06:24:37;;;;;;;;;;;;;;;;;;2099531;28;1287;-89
2021/11/27 06:25:39;;;;;;;;;;;;;;;;;;2099365;28;1913;-96
2021/11/27 06:26:46;;;;;;;;;;;;;;;;;;2097295;28;1522;-96
2021/11/27 06:27:47;;;;;;;;;;;;;;;;;;2088961;28;1553;-96
2021/11/27 06:28:49;;;;;;;;;;;;;;;;;;2092551;28;1722;-96
2021/11/27 06:29:54;;;;;;;;;;;;;;;;;;2099991;28;1254;-96
2021/11/27 06:30:56;;;;;;;;;;;;;;;;;;2100233;28;1828;-96
2021/11/27 06:31:58;;;;;;;;;;;;;;;;;;2091861;28;1397;-95
2021/11/27 06:32:59;;;;;;;;;;;;;;;;;;2084405;28;1302;-96
2021/11/27 06:34:00;;;;;;;;;;;;;;;;;;2089410;28;1766;-96
2021/11/27 06:35:02;;;;;;;;;;;;;;;;;;2089757;28;1355;-96
2021/11/27 06:36:04;;;;;;;;;;;;;;;;;;2088229;28;2051;-96
2021/11/27 06:37:07;;;;;;;;;;;;;;;;;;2098129;28;1392;-95
2021/11/27 06:38:08;;;;;;;;;;;;;;;;;;2100876;28;1353;-96
2021/11/27 06:39:12;;;;;;;;;;;;;;;;;;2088555;28;2059;-96
2021/11/27 06:40:16;;;;;;;;;;;;;;;;;;2072741;28;1394;-96
2021/11/27 06:41:45;;;;;;;;;;;;;;;;;;2082754;28;1121;-96
2021/11/27 06:43:16;;;;;;;;;;;;;;;;;;2098288;28;1353;-96
2021/11/27 06:44:40;;;;;;;;;;;;;;;;;;2089998;28;1266;-96
2021/11/27 06:45:44;;;;;;;;;;;;;;;;;;2100889;28;1985;-96
2021/11/27 06:46:46;;;;;;;;;;;;;;;;;;2084056;28;1214;-93
2021/11/27 06:47:47;;;;;;;;;;;;;;;;;;2083048;28;1366;-94
2021/11/27 06:48:51;;;;;;;;;;;;;;;;;;2074498;28;1258;-93
2021/11/27 06:49:53;;;;;;;;;;;;;;;;;;2083373;28;1285;-94
2021/11/27 06:50:54;;;;;;;;;;;;;;;;;;2090866;28;1300;-94
2021/11/27 06:51:56;;;;;;;;;;;;;;;;;;2091165;28;1256;-94
2021/11/27 06:52:57;;;;;;;;;;;;;;;;;;2082941;28;1394;-94
2021/11/27 06:53:59;;;;;;;;;;;;;;;;;;2082286;28;1410;-95
2021/11/27 06:55:00;;;;;;;;;;;;;;;;;;2099018;28;1496;-94
2021/11/27 06:56:03;;;;;;;;;;;;;;;;;;2085073;28;1348;-94
2021/11/27 06:57:06;;;;;;;;;;;;;;;;;;2091436;28;1293;-93
2021/11/27 06:58:07;;;;;;;;;;;;;;;;;;2083029;28;1336;-93
2021/11/27 06:59:10;;;;;;;;;;;;;;;;;;2075227;28;1411;-94
2021/11/27 07:00:14;;;;;;;;;;;;;;;;;;2091094;28;930;-94
2021/11/27 07:01:37;;;;;;;;;;;;;;;;;;2091949;28;1067;-93
2021/11/27 07:02:58;;;;;;;;;;;;;;;;;;2092211;28;607;-96
2021/11/27 07:04:19;;;;;;;;;;;;;;;;;;2092835;28;658;-96
2021/11/27 07:05:31;;;;;;;;;;;;;;;;;;2092203;28;1927;-96
2021/11/27 07:06:40;;;;;;;;;;;;;;;;;;2107256;28;1404;-96
2021/11/27 07:07:42;;;;;;;;;;;;;;;;;;2099860;28;1258;-96
2021/11/27 07:09:17;;;;;;;;;;;;;;;;;;2077269;28;1452;-96
2021/11/27 07:10:44;;;;;;;;;;;;;;;;;;2091811;28;1286;-96
2021/11/27 07:11:54;;;;;;;;;;;;;;;;;;2085073;28;1420;-96
2021/11/27 07:12:59;;;;;;;;;;;;;;;;;;2086253;28;1538;-95
2021/11/27 07:14:01;;;;;;;;;;;;;;;;;;2088613;28;1085;-95
2021/11/27 07:15:06;;;;;;;;;;;;;;;;;;2085176;28;1239;-96
2021/11/27 07:16:08;;;;;;;;;;;;;;;;;;2094312;28;1844;-96
2021/11/27 07:17:22;;;;;;;;;;;;;;;;;;2104160;28;1417;-96
2021/11/27 07:18:24;;;;;;;;;;;;;;;;;;2093613;28;1277;-96
2021/11/27 07:19:25;;;;;;;;;;;;;;;;;;2085710;28;1918;-96
2021/11/27 07:20:30;;;;;;;;;;;;;;;;;;2094155;28;1486;-96